Time;durP1;ratioP1;P1;durP2;ratioP2;P2;SDS_P1;SDS_P2;PMS_P1;PMS_P2;Temp;Humidity;BMP_temperature;BMP_pressure;BME280_temperature;BME280_humidity;BME280_pressure;Samples;Min_cycle;Max_cycle;Signal;HPM_P1;HPM_P2
2023/06/23 00:00:28;;;;;;;51.85;41.17;;;21.90;99.90;;;;;;5003700;28;20068;-62
2023/06/23 00:02:54;;;;;;;52.17;42.88;;;21.90;99.90;;;;;;5067038;28;20044;-62
2023/06/23 00:05:20;;;;;;;49.42;41.42;;;21.90;99.90;;;;;;5057331;28;20036;-63
2023/06/23 00:07:47;;;;;;;51.08;42.35;;;21.90;99.90;;;;;;5075507;28;20052;-62
2023/06/23 00:10:13;;;;;;;54.30;42.92;;;21.90;99.90;;;;;;5054491;28;20186;-62
2023/06/23 00:12:42;;;;;;;53.33;42.78;;;21.90;99.90;;;;;;5042543;28;20125;-63
2023/06/23 00:15:15;;;;;;;56.70;42.00;;;21.90;99.90;;;;;;5053078;28;20151;-62
2023/06/23 00:17:46;;;;;;;54.65;41.70;;;21.80;99.90;;;;;;5054871;28;20052;-61
2023/06/23 00:20:15;;;;;;;57.55;42.42;;;21.80;99.90;;;;;;5039175;28;20061;-62
2023/06/23 00:22:43;;;;;;;53.20;41.72;;;21.80;99.90;;;;;;5058540;28;20107;-62
2023/06/23 00:25:10;;;;;;;52.08;40.47;;;21.70;99.90;;;;;;5020178;28;20410;-62
2023/06/23 00:27:40;;;;;;;53.22;41.42;;;21.70;99.90;;;;;;5056494;28;20146;-62
2023/06/23 00:30:07;;;;;;;51.20;39.83;;;21.70;99.90;;;;;;5049650;28;20119;-62
2023/06/23 00:32:33;;;;;;;53.35;40.05;;;21.60;99.90;;;;;;5036049;28;20278;-62
2023/06/23 00:34:59;;;;;;;48.97;40.65;;;21.70;99.90;;;;;;5058643;28;20040;-62
2023/06/23 00:37:29;;;;;;;52.95;39.47;;;21.70;99.90;;;;;;5054418;28;20055;-62
2023/06/23 00:39:55;;;;;;;44.47;38.00;;;21.60;99.90;;;;;;5055075;28;20041;-62
2023/06/23 00:42:21;;;;;;;51.33;39.97;;;21.50;99.90;;;;;;5037423;28;20106;-62
2023/06/23 00:44:47;;;;;;;47.83;37.67;;;21.50;99.90;;;;;;5053502;28;20040;-62
2023/06/23 00:47:18;;;;;;;48.47;40.45;;;21.50;99.90;;;;;;5056741;28;20036;-62
2023/06/23 00:49:45;;;;;;;51.25;40.30;;;21.50;99.90;;;;;;5048669;28;20045;-62
2023/06/23 00:52:11;;;;;;;52.47;40.35;;;21.50;99.90;;;;;;5014199;28;20059;-62
2023/06/23 00:54:37;;;;;;;49.25;39.13;;;21.40;99.90;;;;;;5021407;28;20038;-62
2023/06/23 00:57:05;;;;;;;50.95;39.00;;;21.40;99.90;;;;;;5026132;28;20048;-62
2023/06/23 00:59:32;;;;;;;51.85;40.47;;;21.40;99.90;;;;;;5036956;28;20436;-62
2023/06/23 01:02:00;;;;;;;49.90;38.40;;;21.30;99.90;;;;;;5037308;28;20048;-62
2023/06/23 01:04:33;;;;;;;51.97;40.22;;;21.30;99.90;;;;;;5017397;28;20900;-62
2023/06/23 01:07:03;;;;;;;53.85;41.63;;;21.30;99.90;;;;;;5051272;28;21893;-62
2023/06/23 01:09:37;;;;;;;50.25;39.35;;;21.30;99.90;;;;;;5013333;28;23431;-62
2023/06/23 01:12:22;;;;;;;48.13;40.83;;;21.30;99.90;;;;;;5005612;28;24979;-62
2023/06/23 01:14:51;;;;;;;46.55;39.00;;;21.20;99.90;;;;;;5004396;28;34231;-62
2023/06/23 01:17:43;;;;;;;49.15;38.72;;;21.20;99.90;;;;;;5019317;28;36130;-61
2023/06/23 01:20:21;;;;;;;52.25;37.97;;;21.20;99.90;;;;;;4895455;28;37576;-62
2023/06/23 01:23:21;;;;;;;50.28;40.42;;;21.10;99.90;;;;;;4911768;29;39904;-62
2023/06/23 01:26:06;;;;;;;52.33;40.07;;;21.10;99.90;;;;;;4927164;28;39801;-62
2023/06/23 01:28:32;;;;;;;45.35;36.78;;;21.00;99.90;;;;;;4891326;29;25633;-62
2023/06/23 01:31:02;;;;;;;52.10;40.40;;;21.10;99.90;;;;;;4872869;29;42473;-62
2023/06/23 01:33:39;;;;;;;48.90;38.53;;;21.10;99.90;;;;;;4934215;28;44975;-62
2023/06/23 01:36:13;;;;;;;49.80;39.08;;;21.00;99.90;;;;;;4959799;28;44405;-62
2023/06/23 01:38:43;;;;;;;52.75;39.60;;;21.10;99.90;;;;;;4948290;28;45906;-62
2023/06/23 01:41:14;;;;;;;;;;;21.00;99.90;;;;;;4957517;28;47105;-62
2023/06/23 01:43:46;;;;;;;46.92;37.58;;;21.00;99.90;;;;;;4994221;28;47824;-62
2023/06/23 01:46:16;;;;;;;48.72;38.03;;;21.00;99.90;;;;;;4968148;28;49810;-62
2023/06/23 01:48:48;;;;;;;51.42;39.78;;;20.90;99.90;;;;;;4997564;28;50278;-62
2023/06/23 01:51:17;;;;;;;53.03;38.35;;;20.90;99.90;;;;;;4976118;28;50110;-62
2023/06/23 01:53:46;;;;;;;50.75;38.30;;;20.90;99.90;;;;;;4974524;28;50369;-61
2023/06/23 01:56:16;;;;;;;49.05;36.80;;;20.80;99.90;;;;;;5005748;28;49493;-62
2023/06/23 01:58:43;;;;;;;49.35;37.78;;;20.80;99.90;;;;;;4970060;28;60713;-61
2023/06/23 02:01:11;;;;;;;47.60;37.55;;;20.80;99.90;;;;;;4991624;28;50254;-62
2023/06/23 02:03:37;;;;;;;44.25;36.35;;;20.70;99.90;;;;;;5004287;28;64817;-61
2023/06/23 02:06:05;;;;;;;52.83;37.33;;;20.70;99.90;;;;;;4960658;28;49133;-62
2023/06/23 02:08:34;;;;;;;47.38;35.70;;;20.70;99.90;;;;;;4986793;28;49208;-62
2023/06/23 02:11:01;;;;;;;45.65;38.47;;;20.70;99.90;;;;;;4993627;28;49583;-61
2023/06/23 02:13:29;;;;;;;44.17;34.38;;;20.70;99.90;;;;;;4971917;28;72742;-61
2023/06/23 02:16:02;;;;;;;45.58;35.05;;;20.70;99.90;;;;;;4966393;28;73493;-61
2023/06/23 02:18:29;;;;;;;50.53;34.67;;;20.60;99.90;;;;;;4949019;28;29328;-62
2023/06/23 02:20:56;;;;;;;47.78;34.28;;;20.60;99.90;;;;;;4921369;28;49377;-62
2023/06/23 02:23:24;;;;;;;44.42;34.80;;;20.60;99.90;;;;;;4940818;28;48444;-62
2023/06/23 02:25:51;;;;;;;43.83;34.70;;;20.50;99.90;;;;;;4937065;28;49057;-61
2023/06/23 02:28:17;;;;;;;45.03;34.25;;;20.50;99.90;;;;;;4986308;28;49191;-61
2023/06/23 02:30:46;;;;;;;47.20;33.85;;;20.50;99.90;;;;;;5001063;28;33204;-62
2023/06/23 02:33:12;;;;;;;45.72;35.35;;;20.50;99.90;;;;;;4981209;28;49525;-61
2023/06/23 02:35:38;;;;;;;51.33;35.42;;;20.40;99.90;;;;;;4982698;28;48844;-62
2023/06/23 02:38:09;;;;;;;44.03;33.72;;;20.40;99.90;;;;;;4950231;28;49289;-61
2023/06/23 02:40:38;;;;;;;48.33;34.55;;;20.40;99.90;;;;;;4964291;28;49343;-61
2023/06/23 02:43:24;;;;;;;42.22;34.92;;;20.40;99.90;;;;;;5000208;28;37015;-61
2023/06/23 02:45:55;;;;;;;41.35;34.55;;;20.30;99.90;;;;;;4940917;28;49606;-62
2023/06/23 02:48:24;;;;;;;;;;;20.30;99.90;;;;;;4976558;28;49603;-62
2023/06/23 02:50:53;;;;;;;47.83;34.85;;;20.30;99.90;;;;;;4992667;28;49204;-61
2023/06/23 02:53:25;;;;;;;47.50;35.08;;;20.30;99.90;;;;;;4992516;28;39572;-61
2023/06/23 02:56:01;;;;;;;47.95;35.58;;;20.30;99.90;;;;;;4928063;28;49383;-61
2023/06/23 02:58:30;;;;;;;40.35;33.22;;;20.30;99.90;;;;;;4978650;28;48186;-61
2023/06/23 03:01:01;;;;;;;40.70;33.97;;;20.30;99.90;;;;;;4994258;28;48730;-61
2023/06/23 03:03:28;;;;;;;44.53;34.65;;;20.20;99.90;;;;;;4991068;28;25500;-61
2023/06/23 03:05:57;;;;;;;44.67;33.50;;;20.20;99.90;;;;;;4967417;28;48854;-62
2023/06/23 03:08:26;;;;;;;43.95;34.00;;;20.20;99.90;;;;;;4889706;28;49053;-61
2023/06/23 03:10:52;;;;;;;49.33;33.97;;;20.20;99.90;;;;;;4924426;28;50008;-61
2023/06/23 03:13:18;;;;;;;41.75;32.47;;;20.20;99.90;;;;;;4955735;28;49534;-61
2023/06/23 03:15:49;;;;;;;50.28;35.28;;;20.20;99.90;;;;;;4908439;28;45894;-61
2023/06/23 03:18:20;;;;;;;50.15;35.55;;;20.10;99.90;;;;;;4944799;28;30616;-61
2023/06/23 03:20:52;;;;;;;62.97;41.60;;;20.10;99.90;;;;;;4945158;28;50069;-61
2023/06/23 03:23:19;;;;;;;55.47;40.08;;;20.10;99.90;;;;;;4908531;28;49397;-62
2023/06/23 03:25:48;;;;;;;56.15;38.40;;;20.10;99.90;;;;;;4905134;28;49587;-61
2023/06/23 03:28:25;;;;;;;53.40;39.97;;;20.20;99.90;;;;;;4914734;28;49470;-61
2023/06/23 03:31:00;;;;;;;65.30;43.15;;;20.20;99.90;;;;;;4933294;28;49079;-61
2023/06/23 03:33:33;;;;;;;57.42;41.80;;;20.20;99.90;;;;;;4889576;28;49878;-61
2023/06/23 03:36:31;;;;;;;51.55;38.65;;;20.10;99.90;;;;;;4886331;28;39976;-61
2023/06/23 03:39:02;;;;;;;48.70;36.28;;;20.20;99.90;;;;;;4935236;28;42755;-61
2023/06/23 03:41:30;;;;;;;45.88;33.40;;;20.20;99.90;;;;;;4967840;28;49546;-61
2023/06/23 03:44:08;;;;;;;46.88;34.75;;;20.20;99.90;;;;;;4948341;28;49516;-62
2023/06/23 03:46:55;;;;;;;44.80;34.35;;;20.20;99.90;;;;;;4963849;28;49521;-61
2023/06/23 03:49:27;;;;;;;45.45;33.97;;;20.20;99.90;;;;;;4947848;28;25064;-61
2023/06/23 03:51:57;;;;;;;46.65;34.80;;;20.20;99.90;;;;;;4973565;28;48065;-61
2023/06/23 03:54:25;;;;;;;45.28;33.72;;;20.20;99.90;;;;;;4967271;28;50041;-61
2023/06/23 03:56:53;;;;;;;41.13;33.20;;;20.30;99.90;;;;;;4966183;28;49817;-61
2023/06/23 04:02:26;;;;;;;44.08;33.55;;;20.40;99.90;;;;;;5152838;27;20130;-62
2023/06/23 04:04:56;;;;;;;47.38;34.33;;;20.40;99.90;;;;;;5128309;28;20082;-62
2023/06/23 04:07:24;;;;;;;43.35;33.10;;;20.40;99.90;;;;;;5042449;28;1490539;-61
2023/06/23 04:09:53;;;;;;;40.53;33.35;;;20.40;99.90;;;;;;5037993;28;20049;-61
2023/06/23 04:12:21;;;;;;;43.58;34.28;;;20.50;99.90;;;;;;5047012;28;20045;-62
2023/06/23 04:14:51;;;;;;;42.35;34.20;;;20.60;99.90;;;;;;5056622;28;20051;-62
2023/06/23 04:17:20;;;;;;;42.50;34.50;;;20.70;99.90;;;;;;5065370;28;20283;-61
2023/06/23 04:19:50;;;;;;;42.53;33.17;;;20.70;99.90;;;;;;5065196;28;20048;-61
2023/06/23 04:22:19;;;;;;;51.80;32.97;;;20.80;99.90;;;;;;5064198;28;20076;-61
2023/06/23 04:24:46;;;;;;;52.58;34.67;;;20.90;99.90;;;;;;5064978;28;20417;-61
2023/06/23 04:27:14;;;;;;;47.13;32.58;;;20.90;99.90;;;;;;5060416;28;20044;-62
2023/06/23 04:29:44;;;;;;;45.42;35.13;;;20.90;99.90;;;;;;5041986;28;20048;-61
2023/06/23 04:32:12;;;;;;;43.55;34.67;;;21.00;99.90;;;;;;5082659;28;20041;-62
2023/06/23 04:34:39;;;;;;;44.33;31.80;;;21.10;99.90;;;;;;5072643;28;20053;-61
2023/06/23 04:37:20;;;;;;;45.05;33.45;;;21.20;99.90;;;;;;5078779;28;20042;-61
2023/06/23 04:39:51;;;;;;;48.40;30.55;;;21.30;99.90;;;;;;5045385;28;20048;-61
2023/06/23 04:42:21;;;;;;;44.08;32.67;;;21.40;99.90;;;;;;5040709;28;20144;-61
2023/06/23 04:44:53;;;;;;;43.78;31.25;;;21.40;99.90;;;;;;5072992;28;20052;-61
2023/06/23 04:47:22;;;;;;;43.22;33.17;;;21.50;99.90;;;;;;5045753;28;20040;-62
2023/06/23 04:49:53;;;;;;;45.47;31.83;;;21.60;99.90;;;;;;5074556;28;20051;-61
2023/06/23 04:52:21;;;;;;;44.58;30.33;;;21.70;99.90;;;;;;5056450;28;20396;-61
2023/06/23 04:54:49;;;;;;;55.15;35.40;;;21.70;99.90;;;;;;5069482;28;20052;-61
2023/06/23 04:57:21;;;;;;;44.40;32.28;;;21.80;99.90;;;;;;5068024;28;20051;-61
2023/06/23 04:59:52;;;;;;;45.10;31.88;;;22.00;99.90;;;;;;5076124;28;20147;-62
2023/06/23 05:02:20;;;;;;;48.63;34.53;;;22.00;99.90;;;;;;5068208;28;20040;-61
2023/06/23 05:04:48;;;;;;;50.72;32.22;;;22.20;99.90;;;;;;5048227;28;20045;-62
2023/06/23 05:07:16;;;;;;;46.65;31.80;;;22.30;99.90;;;;;;5066697;28;20052;-62
2023/06/23 05:09:48;;;;;;;44.50;30.67;;;22.40;99.90;;;;;;5070764;28;20102;-62
2023/06/23 05:12:21;;;;;;;49.17;32.22;;;22.50;99.90;;;;;;5086254;28;20040;-62
2023/06/23 05:14:50;;;;;;;53.35;30.92;;;22.60;99.90;;;;;;5076634;28;20047;-62
2023/06/23 05:17:18;;;;;;;48.83;31.40;;;22.60;99.90;;;;;;5060966;28;20036;-62
2023/06/23 05:19:47;;;;;;;50.70;30.75;;;22.80;99.90;;;;;;5047120;28;20037;-62
2023/06/23 05:22:16;;;;;;;52.85;30.98;;;22.80;99.90;;;;;;5047648;28;20524;-62
2023/06/23 05:24:52;;;;;;;46.93;30.93;;;22.90;99.90;;;;;;5054543;28;20060;-62
2023/06/23 05:27:21;;;;;;;51.33;30.58;;;23.00;99.90;;;;;;5026478;28;20137;-62
2023/06/23 05:29:50;;;;;;;55.10;30.52;;;23.20;99.90;;;;;;5045797;28;20040;-62
2023/06/23 05:32:18;;;;;;;52.75;32.80;;;23.30;99.90;;;;;;4974699;28;20832;-62
2023/06/23 05:34:49;;;;;;;43.88;27.88;;;23.40;99.90;;;;;;5017898;28;20469;-62
2023/06/23 05:37:18;;;;;;;44.42;28.55;;;23.50;99.90;;;;;;5019977;28;21553;-62
2023/06/23 05:39:46;;;;;;;50.60;30.15;;;23.60;99.90;;;;;;4957829;28;22914;-62
2023/06/23 05:42:12;;;;;;;51.08;29.90;;;23.70;99.90;;;;;;5029920;28;22850;-62
2023/06/23 05:44:38;;;;;;;57.53;33.17;;;23.80;99.90;;;;;;5025992;28;25103;-62
2023/06/23 05:47:10;;;;;;;50.47;30.42;;;23.90;99.90;;;;;;5039520;28;27198;-62
2023/06/23 05:49:42;;;;;;;50.47;30.88;;;24.00;99.90;;;;;;4982869;28;25047;-62
2023/06/23 05:52:12;;;;;;;65.03;34.58;;;24.20;99.90;;;;;;5022081;28;28397;-62
2023/06/23 05:54:42;;;;;;;57.42;30.60;;;24.30;99.90;;;;;;4983205;28;24942;-63
2023/06/23 05:57:18;;;;;;;46.10;28.95;;;24.40;99.90;;;;;;4954484;28;29921;-63
2023/06/23 05:59:46;;;;;;;46.67;28.45;;;24.50;99.90;;;;;;4994140;28;31149;-62
2023/06/23 06:02:21;;;;;;;50.90;28.13;;;24.70;99.90;;;;;;5010976;28;31899;-63
2023/06/23 06:04:50;;;;;;;44.25;28.15;;;24.80;99.90;;;;;;5034683;28;33976;-62
2023/06/23 06:07:18;;;;;;;53.90;28.83;;;24.80;99.90;;;;;;5038651;28;24725;-63
2023/06/23 06:09:45;;;;;;;45.53;28.67;;;24.90;99.90;;;;;;5033517;28;35589;-63
2023/06/23 06:12:12;;;;;;;38.50;26.55;;;24.90;99.90;;;;;;5037827;28;36222;-62
2023/06/23 06:14:40;;;;;;;48.97;26.67;;;25.00;99.90;;;;;;5060630;28;37298;-63
2023/06/23 06:17:07;;;;;;;49.13;27.48;;;25.20;99.90;;;;;;4969439;28;38144;-63
2023/06/23 06:19:37;;;;;;;47.08;28.52;;;25.40;99.90;;;;;;4957413;28;39465;-63
2023/06/23 06:22:05;;;;;;;50.50;29.38;;;25.50;99.90;;;;;;4933544;28;41960;-63
2023/06/23 06:24:33;;;;;;;54.60;27.73;;;25.60;99.90;;;;;;4961442;28;42854;-63
2023/06/23 06:27:06;;;;;;;39.92;26.70;;;25.70;99.90;;;;;;4963593;28;45389;-63
2023/06/23 06:29:37;;;;;;;42.47;25.77;;;25.90;99.90;;;;;;4973321;28;44107;-63
2023/06/23 06:32:05;;;;;;;38.40;25.17;;;26.00;99.90;;;;;;4918431;28;46608;-63
2023/06/23 06:34:32;;;;;;;37.55;24.63;;;26.10;99.90;;;;;;4975835;28;46801;-63
2023/06/23 06:37:02;;;;;;;41.05;25.15;;;26.10;99.90;;;;;;4994390;28;47847;-63
2023/06/23 06:39:33;;;;;;;41.92;25.27;;;26.20;99.90;;;;;;4995797;28;48764;-63
2023/06/23 06:42:00;;;;;;;41.50;25.27;;;26.30;99.90;;;;;;4955773;28;57506;-63
2023/06/23 06:44:26;;;;;;;43.38;25.88;;;26.50;99.90;;;;;;5006973;28;49674;-63
2023/06/23 06:46:53;;;;;;;46.45;25.17;;;26.70;99.90;;;;;;5021145;28;49353;-63
2023/06/23 06:49:23;;;;;;;45.35;26.42;;;26.70;99.90;;;;;;5050395;28;60803;-62
2023/06/23 06:51:54;;;;;;;44.33;24.93;;;26.90;99.90;;;;;;5014650;28;62008;-63
2023/06/23 06:54:20;;;;;;;42.40;25.20;;;27.00;99.90;;;;;;4970798;28;64286;-63
2023/06/23 06:56:46;;;;;;;40.88;24.33;;;27.30;99.90;;;;;;4996614;28;64520;-63
2023/06/23 06:59:12;;;;;;;36.42;23.58;;;27.50;99.90;;;;;;4988172;28;66327;-63
2023/06/23 07:01:40;;;;;;;34.63;21.75;;;27.70;99.90;;;;;;4958420;28;68057;-64
2023/06/23 07:04:07;;;;;;;34.22;22.55;;;28.00;99.90;;;;;;4976065;28;44370;-63
2023/06/23 07:06:35;;;;;;;29.77;21.45;;;28.20;99.90;;;;;;4994002;28;45349;-63
2023/06/23 07:09:01;;;;;;;33.25;20.92;;;28.10;99.90;;;;;;5017027;28;24972;-63
2023/06/23 07:11:30;;;;;;;31.30;19.70;;;28.30;99.90;;;;;;4950281;28;46986;-63
2023/06/23 07:13:57;;;;;;;38.53;21.90;;;28.40;99.90;;;;;;4985592;28;24943;-64
2023/06/23 07:16:24;;;;;;;25.63;19.75;;;28.80;99.90;;;;;;5038967;28;25014;-63
2023/06/23 07:18:50;;;;;;;29.85;19.70;;;29.10;99.90;;;;;;5039935;28;48220;-64
2023/06/23 07:21:16;;;;;;;26.58;18.95;;;29.20;99.90;;;;;;5039662;28;48891;-64
2023/06/23 07:23:42;;;;;;;37.03;20.67;;;29.50;99.90;;;;;;5040161;28;48295;-64
2023/06/23 07:26:08;;;;;;;28.73;19.38;;;29.80;99.90;;;;;;5041151;28;26892;-64
2023/06/23 07:28:34;;;;;;;33.50;20.58;;;30.10;99.90;;;;;;5040003;28;48624;-63
2023/06/23 07:31:00;;;;;;;37.72;20.40;;;30.20;99.90;;;;;;5041408;28;49244;-64
2023/06/23 07:33:26;;;;;;;27.70;19.27;;;30.50;99.90;;;;;;5037846;28;25095;-64
2023/06/23 07:35:53;;;;;;;26.85;19.02;;;30.70;99.50;;;;;;5022140;28;27424;-64
2023/06/23 07:38:19;;;;;;;33.78;21.33;;;30.90;99.90;;;;;;5035174;28;49191;-63
2023/06/23 07:40:45;;;;;;;30.40;20.00;;;31.00;99.90;;;;;;5008648;28;49639;-64
2023/06/23 07:43:13;;;;;;;30.25;19.42;;;31.30;99.70;;;;;;5011117;28;55734;-64
2023/06/23 07:45:39;;;;;;;32.35;18.65;;;31.50;97.90;;;;;;4996208;28;48710;-64
2023/06/23 07:48:05;;;;;;;32.60;19.55;;;31.50;95.30;;;;;;5026894;28;49003;-63
2023/06/23 07:50:31;;;;;;;26.60;18.35;;;31.80;95.00;;;;;;5035246;28;33155;-64
2023/06/23 07:52:57;;;;;;;33.42;18.65;;;32.00;98.90;;;;;;5017475;28;49227;-64
2023/06/23 07:55:23;;;;;;;24.98;17.48;;;32.10;96.50;;;;;;5018071;28;49284;-64
2023/06/23 07:57:49;;;;;;;30.10;18.40;;;32.20;91.00;;;;;;5035807;28;48223;-64
2023/06/23 08:00:16;;;;;;;31.63;17.17;;;32.50;92.90;;;;;;5016909;28;24973;-64
2023/06/23 08:02:42;;;;;;;35.08;19.13;;;32.50;90.80;;;;;;4997217;28;49540;-64
2023/06/23 08:05:09;;;;;;;29.08;18.08;;;32.80;91.30;;;;;;4949692;28;49238;-63
2023/06/23 08:07:35;;;;;;;32.95;17.60;;;32.90;90.80;;;;;;4981927;28;36963;-63
2023/06/23 08:10:02;;;;;;;27.17;16.73;;;32.80;95.30;;;;;;4955121;28;29706;-64
2023/06/23 08:12:29;;;;;;;32.13;16.88;;;32.90;90.20;;;;;;4944680;28;49333;-63
2023/06/23 08:14:55;;;;;;;35.20;17.15;;;33.20;91.40;;;;;;4982524;28;40519;-63
2023/06/23 08:17:21;;;;;;;35.28;16.15;;;33.10;83.10;;;;;;5006153;28;48746;-64
2023/06/23 08:19:47;;;;;;;32.55;17.02;;;33.00;85.10;;;;;;4973087;28;32458;-64
2023/06/23 08:22:14;;;;;;;26.45;14.75;;;33.60;88.40;;;;;;4994587;28;24805;-64
2023/06/23 08:24:40;;;;;;;35.63;15.20;;;33.80;77.60;;;;;;4998367;28;48854;-63
2023/06/23 08:27:06;;;;;;;30.05;15.82;;;33.80;83.60;;;;;;5006363;28;49008;-64
2023/06/23 08:29:32;;;;;;;26.48;14.77;;;33.90;75.40;;;;;;5014150;28;35135;-64
2023/06/23 08:31:58;;;;;;;33.10;16.00;;;34.00;81.00;;;;;;5013116;28;48976;-64
2023/06/23 08:34:24;;;;;;;28.55;16.08;;;34.00;83.70;;;;;;4946814;28;43649;-64
2023/06/23 08:36:51;;;;;;;29.45;16.10;;;34.30;73.00;;;;;;4924440;28;37885;-64
2023/06/23 08:39:17;;;;;;;39.33;18.02;;;33.70;71.40;;;;;;4915762;28;39537;-64
2023/06/23 08:41:44;;;;;;;32.95;16.65;;;34.30;76.80;;;;;;4915170;28;39558;-63
2023/06/23 08:44:13;;;;;;;37.67;16.63;;;34.70;79.90;;;;;;4930329;28;47228;-62
2023/06/23 08:46:41;;;;;;;30.37;15.40;;;34.90;72.40;;;;;;4888332;28;48791;-64
2023/06/23 08:49:14;;;;;;;27.73;13.65;;;35.40;68.20;;;;;;4900439;28;48727;-64
2023/06/23 08:54:19;;;;;;;37.60;15.68;;;35.40;69.90;;;;;;5070452;27;1448227;-64
2023/06/23 08:56:45;;;;;;;27.55;15.25;;;35.70;65.90;;;;;;5091629;28;20032;-64
2023/06/23 08:59:12;;;;;;;40.83;16.73;;;35.90;67.20;;;;;;5091685;28;20393;-64
2023/06/23 09:01:38;;;;;;;31.52;16.35;;;36.10;68.70;;;;;;5091553;28;20050;-64
2023/06/23 09:04:04;;;;;;;36.42;16.30;;;36.20;63.00;;;;;;5090727;28;20024;-64
2023/06/23 09:06:30;;;;;;;33.47;15.27;;;36.40;64.30;;;;;;5089763;28;20019;-65
2023/06/23 09:08:58;;;;;;;29.17;14.02;;;36.40;68.90;;;;;;5088877;28;20032;-65
2023/06/23 09:11:25;;;;;;;35.03;14.77;;;36.10;68.70;;;;;;5085462;28;20032;-65
2023/06/23 09:13:54;;;;;;;34.58;13.55;;;36.10;60.70;;;;;;5088552;28;20159;-65
2023/06/23 09:16:21;;;;;;;31.38;13.32;;;36.10;64.60;;;;;;5080092;28;20028;-65
2023/06/23 09:18:47;;;;;;;29.58;13.95;;;36.30;70.10;;;;;;5088759;28;20032;-65
2023/06/23 09:21:13;;;;;;;28.00;15.43;;;36.50;59.80;;;;;;5087458;28;20024;-65
2023/06/23 09:24:04;;;;;;;36.55;14.23;;;36.60;72.60;;;;;;5081500;28;20036;-65
2023/06/23 09:26:50;;;;;;;29.90;14.90;;;36.70;58.20;;;;;;5082357;28;20532;-65
2023/06/23 09:29:24;;;;;;;34.13;15.43;;;36.60;64.40;;;;;;5079601;28;20033;-65
2023/06/23 09:31:52;;;;;;;37.75;14.45;;;36.60;69.80;;;;;;5079916;28;20359;-65
2023/06/23 09:34:23;;;;;;;30.65;14.23;;;36.90;64.10;;;;;;5090912;28;20032;-65
2023/06/23 09:36:50;;;;;;;30.35;13.90;;;37.50;77.10;;;;;;5090229;28;20036;-65
2023/06/23 09:47:03;;;;;;;28.98;13.77;;;37.80;54.90;;;;;;5032334;28;20067;-65
2023/06/23 09:49:36;;;;;;;36.67;12.30;;;37.80;57.60;;;;;;5077817;28;20025;-65
2023/06/23 09:52:02;;;;;;;30.48;13.15;;;38.10;61.90;;;;;;5090761;28;20032;-65
2023/06/23 09:54:36;;;;;;;34.35;13.90;;;38.10;57.40;;;;;;5090722;28;20090;-65
2023/06/23 09:57:12;;;;;;;30.75;12.00;;;38.20;99.90;;;;;;5090384;28;20088;-65
2023/06/23 09:59:39;;;;;;;38.67;13.23;;;38.50;58.10;;;;;;5090840;28;20468;-65
2023/06/23 10:02:09;;;;;;;32.70;12.52;;;38.40;62.10;;;;;;5090506;28;20386;-65
2023/06/23 10:04:35;;;;;;;;;;;38.40;58.60;;;;;;5083507;28;20068;-65
2023/06/23 10:07:21;;;;;;;35.97;12.75;;;38.60;98.70;;;;;;5077273;28;19912;-65
2023/06/23 10:09:55;;;;;;;32.15;12.55;;;38.50;52.00;;;;;;5076825;28;20027;-65
2023/06/23 10:12:23;;;;;;;31.88;11.52;;;38.10;45.50;;;;;;5077013;28;20041;-65
2023/06/23 10:14:50;;;;;;;28.90;11.45;;;38.60;52.40;;;;;;5076937;28;20031;-65
2023/06/23 10:17:16;;;;;;;28.60;10.57;;;38.80;79.70;;;;;;5077693;28;20086;-65
2023/06/23 10:19:46;;;;;;;36.03;13.02;;;38.60;58.10;;;;;;5077730;28;20081;-65
2023/06/23 10:22:18;;;;;;;34.03;12.57;;;39.00;57.30;;;;;;5077752;28;20084;-65
2023/06/23 10:24:54;;;;;;;39.67;13.27;;;39.50;50.20;;;;;;5077382;28;20098;-65
2023/06/23 10:27:22;;;;;;;34.83;13.32;;;39.70;55.00;;;;;;5057402;28;20037;-65
2023/06/23 10:29:52;;;;;;;29.85;11.95;;;39.90;45.10;;;;;;5059405;28;20025;-65
2023/06/23 10:32:23;;;;;;;26.60;11.88;;;39.40;43.50;;;;;;5077378;28;20102;-65
2023/06/23 10:34:51;;;;;;;28.27;12.98;;;39.10;44.30;;;;;;5077629;28;20109;-65
2023/06/23 10:37:21;;;;;;;26.73;11.60;;;38.80;50.70;;;;;;5077461;28;20055;-65
2023/06/23 10:39:51;;;;;;;27.63;11.55;;;38.80;48.70;;;;;;5077255;28;20031;-65
2023/06/23 10:42:20;;;;;;;36.80;12.68;;;38.60;48.00;;;;;;5077283;28;20048;-65
2023/06/23 10:44:51;;;;;;;30.70;11.50;;;38.60;46.60;;;;;;5076402;28;20066;-65
2023/06/23 10:47:17;;;;;;;33.40;11.95;;;38.00;43.70;;;;;;5076599;28;20062;-65
2023/06/23 10:49:44;;;;;;;33.08;11.45;;;38.50;55.40;;;;;;5076322;28;20036;-65
2023/06/23 10:52:12;;;;;;;34.20;11.60;;;38.90;46.90;;;;;;5076152;28;20536;-65
2023/06/23 10:54:38;;;;;;;26.20;11.18;;;38.90;46.60;;;;;;5075988;28;20049;-65
2023/06/23 10:57:14;;;;;;;29.63;10.95;;;39.40;55.00;;;;;;5075886;28;20020;-65
2023/06/23 10:59:57;;;;;;;23.38;10.43;;;39.50;55.50;;;;;;5075398;28;20435;-65
2023/06/23 11:02:23;;;;;;;25.42;10.52;;;39.50;47.60;;;;;;5075499;28;20139;-65
2023/06/23 11:04:57;;;;;;;29.83;10.77;;;39.80;48.50;;;;;;5075552;28;20017;-65
2023/06/23 11:07:24;;;;;;;27.25;10.75;;;39.20;47.60;;;;;;5075309;28;20111;-65
2023/06/23 11:09:58;;;;;;;26.90;9.57;;;39.20;51.00;;;;;;5075010;28;20555;-65
2023/06/23 11:12:37;;;;;;;26.58;9.80;;;39.30;46.60;;;;;;5072665;28;20031;-65
2023/06/23 11:15:09;;;;;;;29.60;10.35;;;39.70;49.30;;;;;;5074786;28;20386;-65
2023/06/23 11:17:45;;;;;;;28.67;9.88;;;39.90;49.20;;;;;;5075034;28;20103;-65
2023/06/23 11:20:20;;;;;;;29.38;11.98;;;39.80;99.90;;;;;;5075669;28;20084;-65
2023/06/23 11:23:10;;;;;;;25.17;10.43;;;40.00;99.90;;;;;;5057762;28;20060;-65
2023/06/23 11:25:47;;;;;;;27.83;11.25;;;40.10;82.40;;;;;;5074989;28;20054;-66
2023/06/23 11:28:38;;;;;;;29.42;11.35;;;40.00;99.90;;;;;;5075149;28;20432;-66
2023/06/23 11:31:29;;;;;;;29.80;9.68;;;39.80;99.90;;;;;;5075108;28;20027;-66
2023/06/23 11:33:54;;;;;;;25.00;9.73;;;39.90;99.90;;;;;;5074756;28;20043;-65
2023/06/23 11:36:22;;;;;;;32.10;10.57;;;40.00;99.90;;;;;;5075203;28;20028;-65
2023/06/23 11:38:50;;;;;;;44.00;11.82;;;40.10;99.90;;;;;;5075210;28;20048;-65
2023/06/23 11:41:25;;;;;;;28.67;10.55;;;39.90;99.90;;;;;;5074765;28;20563;-65
2023/06/23 11:44:02;;;;;;;32.28;11.85;;;40.00;99.90;;;;;;5075149;28;20040;-65
2023/06/23 11:46:32;;;;;;;29.02;9.60;;;39.90;99.90;;;;;;5075142;28;20102;-66
2023/06/23 11:49:08;;;;;;;27.10;10.32;;;40.10;99.90;;;;;;5075328;28;20029;-66
2023/06/23 11:51:35;;;;;;;25.13;9.43;;;40.40;99.90;;;;;;5074861;28;20599;-66
2023/06/23 11:54:01;;;;;;;26.88;10.05;;;40.30;99.90;;;;;;5074787;28;20490;-66
2023/06/23 11:56:27;;;;;;;32.95;11.68;;;40.40;99.90;;;;;;5075094;28;20025;-65
2023/06/23 11:58:57;;;;;;;33.50;11.82;;;40.40;99.90;;;;;;5074916;28;20036;-65
2023/06/23 12:01:23;;;;;;;33.75;9.75;;;40.20;99.90;;;;;;5074929;28;20028;-65
2023/06/23 12:03:51;;;;;;;32.85;11.15;;;40.20;99.90;;;;;;5074805;28;20482;-65
2023/06/23 12:06:18;;;;;;;27.23;9.82;;;40.30;99.90;;;;;;5074791;28;20486;-65
2023/06/23 12:08:49;;;;;;;30.02;11.45;;;40.40;99.90;;;;;;5074873;28;20028;-65
2023/06/23 12:11:17;;;;;;;32.92;10.77;;;40.30;99.90;;;;;;5074425;28;20055;-65
2023/06/23 12:13:48;;;;;;;41.55;11.98;;;40.40;99.90;;;;;;5074371;28;20024;-65
2023/06/23 12:16:14;;;;;;;30.00;10.60;;;40.00;99.90;;;;;;5074557;28;20055;-65
2023/06/23 12:18:44;;;;;;;32.00;9.27;;;40.20;99.90;;;;;;5074417;28;20017;-65
2023/06/23 12:21:11;;;;;;;26.40;9.88;;;40.30;99.90;;;;;;5074586;28;20044;-65
2023/06/23 12:23:37;;;;;;;26.75;7.97;;;40.60;99.90;;;;;;5074401;28;20020;-65
2023/06/23 12:26:06;;;;;;;25.60;8.93;;;40.40;99.90;;;;;;5073696;28;20056;-65
2023/06/23 12:28:32;;;;;;;52.75;10.57;;;39.90;99.90;;;;;;5073776;28;20086;-65
2023/06/23 12:30:58;;;;;;;49.33;13.18;;;40.00;35.70;;;;;;5074559;28;20499;-65
2023/06/23 12:33:28;;;;;;;28.33;7.50;;;40.10;43.60;;;;;;5074279;28;20028;-65
2023/06/23 12:36:02;;;;;;;32.33;8.55;;;40.30;99.90;;;;;;5056258;28;20025;-65
2023/06/23 12:38:33;;;;;;;30.15;7.22;;;40.30;99.90;;;;;;5074662;28;20415;-65
2023/06/23 12:41:18;;;;;;;30.52;7.72;;;40.30;99.90;;;;;;5074199;28;20547;-65
2023/06/23 12:43:45;;;;;;;32.15;7.45;;;40.30;99.90;;;;;;5074439;28;20039;-65
2023/06/23 12:46:12;;;;;;;21.42;7.28;;;40.30;99.90;;;;;;5074549;28;20035;-65
2023/06/23 12:48:39;;;;;;;27.90;7.88;;;39.90;99.90;;;;;;5074195;28;20053;-65
2023/06/23 12:51:06;;;;;;;27.23;9.02;;;39.50;99.90;;;;;;5074213;28;20382;-65
2023/06/23 12:53:33;;;;;;;28.63;8.40;;;39.20;99.90;;;;;;5074189;28;20112;-65